sensor_id;sensor_type;location;lat;lon;timestamp;pressure;altitude;pressure_sealevel;temperature;humidity
78313;BME280;67568;47.438;21.408;2023-09-30T00:01:30;101032.47;;;16.39;67.96
78313;BME280;67568;47.438;21.408;2023-09-30T00:03:57;101042.84;;;16.38;68.23
78313;BME280;67568;47.438;21.408;2023-09-30T00:06:24;101043.50;;;16.35;69.11
78313;BME280;67568;47.438;21.408;2023-09-30T00:08:54;101044.97;;;16.33;67.99
78313;BME280;67568;47.438;21.408;2023-09-30T00:11:21;101045.09;;;16.28;68.69
78313;BME280;67568;47.438;21.408;2023-09-30T00:13:48;101031.59;;;16.12;69.11
78313;BME280;67568;47.438;21.408;2023-09-30T00:16:14;101035.16;;;16.04;69.69
78313;BME280;67568;47.438;21.408;2023-09-30T00:18:41;101052.78;;;16.13;68.76
78313;BME280;67568;47.438;21.408;2023-09-30T00:21:08;101054.09;;;16.07;70.27
78313;BME280;67568;47.438;21.408;2023-09-30T00:23:35;101044.84;;;15.98;70.42
78313;BME280;67568;47.438;21.408;2023-09-30T00:26:02;101044.66;;;15.94;70.49
78313;BME280;67568;47.438;21.408;2023-09-30T00:28:29;101050.75;;;15.96;69.65
78313;BME280;67568;47.438;21.408;2023-09-30T00:30:55;101045.97;;;15.88;70.58
78313;BME280;67568;47.438;21.408;2023-09-30T00:33:23;101034.34;;;15.72;71.02
78313;BME280;67568;47.438;21.408;2023-09-30T00:35:49;101037.78;;;15.69;70.50
78313;BME280;67568;47.438;21.408;2023-09-30T00:38:16;101039.03;;;15.63;71.75
78313;BME280;67568;47.438;21.408;2023-09-30T00:40:47;101033.84;;;15.70;71.58
78313;BME280;67568;47.438;21.408;2023-09-30T00:43:23;101031.59;;;15.59;71.61
78313;BME280;67568;47.438;21.408;2023-09-30T00:46:02;101029.84;;;15.63;71.28
78313;BME280;67568;47.438;21.408;2023-09-30T00:48:29;101031.47;;;15.64;70.86
78313;BME280;67568;47.438;21.408;2023-09-30T00:50:56;101025.03;;;15.32;72.45
78313;BME280;67568;47.438;21.408;2023-09-30T00:53:23;101030.03;;;15.44;71.63
78313;BME280;67568;47.438;21.408;2023-09-30T00:55:50;101025.09;;;15.41;71.34
78313;BME280;67568;47.438;21.408;2023-09-30T00:58:18;101024.16;;;15.45;72.59
78313;BME280;67568;47.438;21.408;2023-09-30T01:00:48;101032.72;;;15.49;72.48
78313;BME280;67568;47.438;21.408;2023-09-30T01:03:15;101031.84;;;15.40;73.08
78313;BME280;67568;47.438;21.408;2023-09-30T01:05:42;101024.69;;;15.34;72.95
78313;BME280;67568;47.438;21.408;2023-09-30T01:08:09;101022.06;;;15.28;72.12
78313;BME280;67568;47.438;21.408;2023-09-30T01:10:39;101021.72;;;15.30;72.78
78313;BME280;67568;47.438;21.408;2023-09-30T01:13:05;101021.41;;;15.32;72.62
78313;BME280;67568;47.438;21.408;2023-09-30T01:15:32;101023.88;;;15.33;72.38
78313;BME280;67568;47.438;21.408;2023-09-30T01:17:59;101024.22;;;15.32;73.06
78313;BME280;67568;47.438;21.408;2023-09-30T01:20:26;101018.25;;;15.24;73.15
78313;BME280;67568;47.438;21.408;2023-09-30T01:22:53;101024.56;;;15.16;73.02
78313;BME280;67568;47.438;21.408;2023-09-30T01:25:21;101012.72;;;15.11;73.08
78313;BME280;67568;47.438;21.408;2023-09-30T01:27:47;101015.97;;;15.26;72.97
78313;BME280;67568;47.438;21.408;2023-09-30T01:30:17;101027.06;;;15.18;73.03
78313;BME280;67568;47.438;21.408;2023-09-30T01:32:44;101029.53;;;15.19;72.97
78313;BME280;67568;47.438;21.408;2023-09-30T01:35:11;101024.78;;;15.20;73.68
78313;BME280;67568;47.438;21.408;2023-09-30T01:37:38;101019.69;;;15.22;73.41
78313;BME280;67568;47.438;21.408;2023-09-30T01:40:05;101027.69;;;15.15;74.29
78313;BME280;67568;47.438;21.408;2023-09-30T01:42:32;101024.84;;;15.06;73.74
78313;BME280;67568;47.438;21.408;2023-09-30T01:44:59;101027.38;;;15.16;74.64
78313;BME280;67568;47.438;21.408;2023-09-30T01:47:26;101020.31;;;15.19;73.00
78313;BME280;67568;47.438;21.408;2023-09-30T01:49:53;101022.28;;;14.96;74.75
78313;BME280;67568;47.438;21.408;2023-09-30T01:52:19;101021.97;;;14.97;74.98
78313;BME280;67568;47.438;21.408;2023-09-30T01:54:46;101018.56;;;15.00;73.80
78313;BME280;67568;47.438;21.408;2023-09-30T01:57:13;101019.25;;;15.06;73.73
78313;BME280;67568;47.438;21.408;2023-09-30T01:59:40;101013.47;;;15.02;74.56
78313;BME280;67568;47.438;21.408;2023-09-30T02:02:07;101014.94;;;15.00;74.26
78313;BME280;67568;47.438;21.408;2023-09-30T02:04:34;101009.66;;;14.98;74.84
78313;BME280;67568;47.438;21.408;2023-09-30T02:07:00;101004.09;;;14.98;74.56
78313;BME280;67568;47.438;21.408;2023-09-30T02:09:27;101007.69;;;14.99;73.74
78313;BME280;67568;47.438;21.408;2023-09-30T02:11:54;101006.69;;;14.95;73.92
78313;BME280;67568;47.438;21.408;2023-09-30T02:14:21;101003.59;;;14.82;73.99
78313;BME280;67568;47.438;21.408;2023-09-30T02:16:48;101005.66;;;14.91;74.17
78313;BME280;67568;47.438;21.408;2023-09-30T02:19:15;101003.38;;;14.93;74.18
78313;BME280;67568;47.438;21.408;2023-09-30T02:21:41;101006.81;;;14.90;73.87
78313;BME280;67568;47.438;21.408;2023-09-30T02:24:08;101009.06;;;14.88;73.33
78313;BME280;67568;47.438;21.408;2023-09-30T02:26:35;101002.97;;;14.85;74.35
78313;BME280;67568;47.438;21.408;2023-09-30T02:29:02;101002.16;;;14.85;74.14
78313;BME280;67568;47.438;21.408;2023-09-30T02:31:29;101001.16;;;14.81;73.16
78313;BME280;67568;47.438;21.408;2023-09-30T02:33:55;101003.41;;;14.79;74.86
78313;BME280;67568;47.438;21.408;2023-09-30T02:36:23;101006.03;;;14.75;73.51
78313;BME280;67568;47.438;21.408;2023-09-30T02:38:49;101002.19;;;14.71;73.36
78313;BME280;67568;47.438;21.408;2023-09-30T02:41:16;101001.00;;;14.64;74.60
78313;BME280;67568;47.438;21.408;2023-09-30T02:43:43;101003.88;;;14.58;74.33
78313;BME280;67568;47.438;21.408;2023-09-30T02:46:09;101002.63;;;14.51;73.59
78313;BME280;67568;47.438;21.408;2023-09-30T02:48:36;101008.00;;;14.47;74.29
78313;BME280;67568;47.438;21.408;2023-09-30T02:51:03;101020.59;;;14.45;73.75
78313;BME280;67568;47.438;21.408;2023-09-30T02:53:30;101015.88;;;14.31;74.80
78313;BME280;67568;47.438;21.408;2023-09-30T02:55:57;101015.38;;;14.29;74.97
78313;BME280;67568;47.438;21.408;2023-09-30T02:58:24;100999.91;;;14.23;74.41
78313;BME280;67568;47.438;21.408;2023-09-30T03:00:50;101011.75;;;14.29;73.47
78313;BME280;67568;47.438;21.408;2023-09-30T03:03:18;101015.47;;;14.24;74.84
78313;BME280;67568;47.438;21.408;2023-09-30T03:05:45;101019.06;;;14.11;74.21
78313;BME280;67568;47.438;21.408;2023-09-30T03:08:12;101012.38;;;13.98;75.44
78313;BME280;67568;47.438;21.408;2023-09-30T03:10:39;101010.63;;;14.02;75.88
78313;BME280;67568;47.438;21.408;2023-09-30T03:13:06;101017.53;;;14.05;75.66
78313;BME280;67568;47.438;21.408;2023-09-30T03:15:33;101020.22;;;14.10;75.74
78313;BME280;67568;47.438;21.408;2023-09-30T03:18:00;101015.78;;;14.09;75.63
78313;BME280;67568;47.438;21.408;2023-09-30T03:20:27;101009.50;;;14.03;75.28
78313;BME280;67568;47.438;21.408;2023-09-30T03:22:54;101007.53;;;14.04;75.46
78313;BME280;67568;47.438;21.408;2023-09-30T03:25:21;101003.59;;;14.05;75.73
78313;BME280;67568;47.438;21.408;2023-09-30T03:27:48;101012.06;;;14.00;74.16
78313;BME280;67568;47.438;21.408;2023-09-30T03:30:16;101007.81;;;13.88;75.39
78313;BME280;67568;47.438;21.408;2023-09-30T03:32:43;101010.50;;;13.80;75.06
78313;BME280;67568;47.438;21.408;2023-09-30T03:35:11;101011.44;;;13.75;75.67
78313;BME280;67568;47.438;21.408;2023-09-30T03:37:38;101011.03;;;13.82;75.10
78313;BME280;67568;47.438;21.408;2023-09-30T03:40:05;101017.13;;;13.84;75.39
78313;BME280;67568;47.438;21.408;2023-09-30T03:42:32;101015.34;;;13.74;75.14
78313;BME280;67568;47.438;21.408;2023-09-30T03:44:59;101010.00;;;13.78;76.33
78313;BME280;67568;47.438;21.408;2023-09-30T03:47:26;101012.97;;;13.81;75.05
78313;BME280;67568;47.438;21.408;2023-09-30T03:49:53;101011.75;;;13.87;75.36
78313;BME280;67568;47.438;21.408;2023-09-30T03:52:20;101010.09;;;13.86;75.31
78313;BME280;67568;47.438;21.408;2023-09-30T03:54:48;101005.34;;;13.87;75.74
78313;BME280;67568;47.438;21.408;2023-09-30T03:57:14;101013.50;;;13.83;75.17
78313;BME280;67568;47.438;21.408;2023-09-30T03:59:43;101005.34;;;13.73;74.81
78313;BME280;67568;47.438;21.408;2023-09-30T04:02:10;101004.19;;;13.74;74.58
78313;BME280;67568;47.438;21.408;2023-09-30T04:04:37;101007.81;;;13.75;74.67
78313;BME280;67568;47.438;21.408;2023-09-30T04:07:06;101008.13;;;13.73;75.13
78313;BME280;67568;47.438;21.408;2023-09-30T04:09:32;101005.13;;;13.69;75.48
78313;BME280;67568;47.438;21.408;2023-09-30T04:12:00;101009.88;;;13.69;76.04
78313;BME280;67568;47.438;21.408;2023-09-30T04:14:26;101011.72;;;13.73;74.88
78313;BME280;67568;47.438;21.408;2023-09-30T04:16:53;101014.84;;;13.72;75.29
78313;BME280;67568;47.438;21.408;2023-09-30T04:19:24;101004.31;;;13.69;75.76
78313;BME280;67568;47.438;21.408;2023-09-30T04:21:51;101012.84;;;13.59;76.10
78313;BME280;67568;47.438;21.408;2023-09-30T04:24:21;101011.09;;;13.63;74.88
78313;BME280;67568;47.438;21.408;2023-09-30T04:26:48;101014.72;;;13.63;74.96
78313;BME280;67568;47.438;21.408;2023-09-30T04:29:17;101016.25;;;13.56;75.61
78313;BME280;67568;47.438;21.408;2023-09-30T04:31:46;101021.00;;;13.55;75.71
78313;BME280;67568;47.438;21.408;2023-09-30T04:34:13;101021.59;;;13.52;76.95
78313;BME280;67568;47.438;21.408;2023-09-30T04:36:40;101030.69;;;13.58;76.48
78313;BME280;67568;47.438;21.408;2023-09-30T04:39:07;101033.56;;;13.53;75.46
78313;BME280;67568;47.438;21.408;2023-09-30T04:41:34;101031.88;;;13.52;76.88
78313;BME280;67568;47.438;21.408;2023-09-30T04:44:01;101026.31;;;13.52;76.08
78313;BME280;67568;47.438;21.408;2023-09-30T04:46:30;101032.75;;;13.52;76.39
78313;BME280;67568;47.438;21.408;2023-09-30T04:48:57;101036.84;;;13.55;76.49
78313;BME280;67568;47.438;21.408;2023-09-30T04:51:24;101026.50;;;13.41;75.81
78313;BME280;67568;47.438;21.408;2023-09-30T04:53:50;101029.09;;;13.52;76.91
78313;BME280;67568;47.438;21.408;2023-09-30T04:56:17;101039.53;;;13.60;76.99
78313;BME280;67568;47.438;21.408;2023-09-30T04:58:44;101037.28;;;13.62;76.63
78313;BME280;67568;47.438;21.408;2023-09-30T05:01:10;101049.56;;;13.61;76.28
78313;BME280;67568;47.438;21.408;2023-09-30T05:03:37;101045.75;;;13.70;76.09
78313;BME280;67568;47.438;21.408;2023-09-30T05:06:05;101051.25;;;13.76;75.17
78313;BME280;67568;47.438;21.408;2023-09-30T05:08:31;101050.09;;;13.77;75.17
78313;BME280;67568;47.438;21.408;2023-09-30T05:10:58;101058.81;;;13.89;75.44
78313;BME280;67568;47.438;21.408;2023-09-30T05:13:25;101056.53;;;13.91;75.86
78313;BME280;67568;47.438;21.408;2023-09-30T05:15:52;101052.72;;;14.01;74.58
78313;BME280;67568;47.438;21.408;2023-09-30T05:18:20;101060.38;;;14.09;75.74
78313;BME280;67568;47.438;21.408;2023-09-30T05:20:47;101064.09;;;14.18;73.96
78313;BME280;67568;47.438;21.408;2023-09-30T05:23:14;101067.53;;;14.29;74.97
78313;BME280;67568;47.438;21.408;2023-09-30T05:25:40;101056.56;;;14.32;73.87
78313;BME280;67568;47.438;21.408;2023-09-30T05:28:07;101058.63;;;14.40;73.92
78313;BME280;67568;47.438;21.408;2023-09-30T05:30:34;101055.22;;;14.44;73.90
78313;BME280;67568;47.438;21.408;2023-09-30T05:33:04;101069.16;;;14.44;74.60
78313;BME280;67568;47.438;21.408;2023-09-30T05:35:31;101067.13;;;14.63;73.21
78313;BME280;67568;47.438;21.408;2023-09-30T05:38:01;101067.16;;;14.03;75.73
78313;BME280;67568;47.438;21.408;2023-09-30T05:40:28;101068.72;;;14.36;74.51
78313;BME280;67568;47.438;21.408;2023-09-30T05:42:58;101067.75;;;14.60;75.01
78313;BME280;67568;47.438;21.408;2023-09-30T05:45:26;101078.00;;;14.87;72.92
78313;BME280;67568;47.438;21.408;2023-09-30T05:47:54;101074.03;;;15.02;72.29
78313;BME280;67568;47.438;21.408;2023-09-30T05:50:22;101060.88;;;15.16;72.38
78313;BME280;67568;47.438;21.408;2023-09-30T05:52:49;101068.38;;;15.29;72.17
78313;BME280;67568;47.438;21.408;2023-09-30T05:55:16;101070.28;;;15.43;70.79
78313;BME280;67568;47.438;21.408;2023-09-30T05:57:43;101081.31;;;15.48;71.25
78313;BME280;67568;47.438;21.408;2023-09-30T06:00:12;101083.88;;;15.81;70.46
78313;BME280;67568;47.438;21.408;2023-09-30T06:02:39;101088.63;;;16.03;70.15
78313;BME280;67568;47.438;21.408;2023-09-30T06:05:06;101086.47;;;16.00;69.79
78313;BME280;67568;47.438;21.408;2023-09-30T06:07:33;101095.63;;;16.23;69.39
78313;BME280;67568;47.438;21.408;2023-09-30T06:10:00;101093.69;;;16.32;68.62
78313;BME280;67568;47.438;21.408;2023-09-30T06:12:27;101100.97;;;16.50;68.32
78313;BME280;67568;47.438;21.408;2023-09-30T06:14:54;101096.91;;;16.56;68.44
78313;BME280;67568;47.438;21.408;2023-09-30T06:17:21;101093.94;;;16.70;68.10
78313;BME280;67568;47.438;21.408;2023-09-30T06:19:48;101096.50;;;16.89;68.18
78313;BME280;67568;47.438;21.408;2023-09-30T06:22:14;101092.25;;;17.00;67.93
78313;BME280;67568;47.438;21.408;2023-09-30T06:24:41;101097.34;;;17.16;66.15
78313;BME280;67568;47.438;21.408;2023-09-30T06:27:11;101098.34;;;17.46;66.32
78313;BME280;67568;47.438;21.408;2023-09-30T06:29:38;101092.56;;;17.60;65.83
78313;BME280;67568;47.438;21.408;2023-09-30T06:32:07;101092.25;;;17.18;65.67
78313;BME280;67568;47.438;21.408;2023-09-30T06:34:34;101093.19;;;17.91;65.18
78313;BME280;67568;47.438;21.408;2023-09-30T06:37:01;101099.84;;;18.34;63.64
78313;BME280;67568;47.438;21.408;2023-09-30T06:39:27;101096.34;;;18.75;62.58
78313;BME280;67568;47.438;21.408;2023-09-30T06:41:57;101093.72;;;19.21;61.90
78313;BME280;67568;47.438;21.408;2023-09-30T06:44:24;101092.88;;;19.62;60.20
78313;BME280;67568;47.438;21.408;2023-09-30T06:46:51;101096.75;;;20.03;58.27
78313;BME280;67568;47.438;21.408;2023-09-30T06:49:18;101105.94;;;20.12;57.97
78313;BME280;67568;47.438;21.408;2023-09-30T06:51:45;101100.72;;;20.35;57.60
78313;BME280;67568;47.438;21.408;2023-09-30T06:54:11;101097.91;;;20.60;56.01
78313;BME280;67568;47.438;21.408;2023-09-30T06:56:38;101094.72;;;20.86;55.73
78313;BME280;67568;47.438;21.408;2023-09-30T06:59:05;101098.00;;;20.88;57.25
78313;BME280;67568;47.438;21.408;2023-09-30T07:01:31;101096.84;;;21.01;55.68
78313;BME280;67568;47.438;21.408;2023-09-30T07:03:58;101101.28;;;21.02;56.19
78313;BME280;67568;47.438;21.408;2023-09-30T07:06:25;101107.72;;;21.15;55.58
78313;BME280;67568;47.438;21.408;2023-09-30T07:08:52;101100.34;;;21.10;55.63
78313;BME280;67568;47.438;21.408;2023-09-30T07:11:31;101107.59;;;21.24;55.07
78313;BME280;67568;47.438;21.408;2023-09-30T07:13:58;101114.78;;;21.09;55.28
78313;BME280;67568;47.438;21.408;2023-09-30T07:16:25;101108.63;;;21.44;55.23
78313;BME280;67568;47.438;21.408;2023-09-30T07:18:57;101105.44;;;21.33;54.09
78313;BME280;67568;47.438;21.408;2023-09-30T07:21:26;101109.28;;;21.53;53.46
78313;BME280;67568;47.438;21.408;2023-09-30T07:23:53;101110.03;;;21.66;53.14
78313;BME280;67568;47.438;21.408;2023-09-30T07:26:25;101108.22;;;22.01;52.59
78313;BME280;67568;47.438;21.408;2023-09-30T07:28:55;101109.28;;;22.41;51.95
78313;BME280;67568;47.438;21.408;2023-09-30T07:31:23;101106.91;;;22.59;50.39
78313;BME280;67568;47.438;21.408;2023-09-30T07:33:50;101104.88;;;22.91;49.55
78313;BME280;67568;47.438;21.408;2023-09-30T07:36:19;101112.13;;;23.63;49.85
78313;BME280;67568;47.438;21.408;2023-09-30T07:38:46;101108.47;;;23.23;49.06
78313;BME280;67568;47.438;21.408;2023-09-30T07:41:12;101105.03;;;23.53;48.47
78313;BME280;67568;47.438;21.408;2023-09-30T07:43:39;101105.34;;;23.67;48.91
78313;BME280;67568;47.438;21.408;2023-09-30T07:46:06;101106.75;;;23.57;48.99
78313;BME280;67568;47.438;21.408;2023-09-30T07:48:34;101108.69;;;23.92;48.80
78313;BME280;67568;47.438;21.408;2023-09-30T07:51:01;101109.69;;;23.81;48.79
78313;BME280;67568;47.438;21.408;2023-09-30T07:53:28;101108.78;;;23.57;48.77
78313;BME280;67568;47.438;21.408;2023-09-30T07:56:01;101113.81;;;23.48;49.61
78313;BME280;67568;47.438;21.408;2023-09-30T07:58:28;101108.47;;;23.23;49.87
78313;BME280;67568;47.438;21.408;2023-09-30T08:00:54;101113.59;;;23.18;49.54
78313;BME280;67568;47.438;21.408;2023-09-30T08:03:23;101113.31;;;23.23;50.05
78313;BME280;67568;47.438;21.408;2023-09-30T08:05:50;101117.91;;;23.11;49.23
78313;BME280;67568;47.438;21.408;2023-09-30T08:08:19;101118.56;;;23.24;50.07
78313;BME280;67568;47.438;21.408;2023-09-30T08:10:48;101117.53;;;23.32;49.35
78313;BME280;67568;47.438;21.408;2023-09-30T08:13:15;101117.84;;;23.66;48.42
78313;BME280;67568;47.438;21.408;2023-09-30T08:15:42;101119.50;;;23.87;48.33
78313;BME280;67568;47.438;21.408;2023-09-30T08:18:11;101120.44;;;24.37;47.27
78313;BME280;67568;47.438;21.408;2023-09-30T08:20:38;101116.31;;;25.07;45.45
78313;BME280;67568;47.438;21.408;2023-09-30T08:23:05;101115.28;;;24.92;45.45
78313;BME280;67568;47.438;21.408;2023-09-30T08:25:34;101113.94;;;24.82;45.53
78313;BME280;67568;47.438;21.408;2023-09-30T08:28:01;101114.31;;;24.81;45.16
78313;BME280;67568;47.438;21.408;2023-09-30T08:30:28;101116.28;;;24.77;45.57
78313;BME280;67568;47.438;21.408;2023-09-30T08:32:55;101118.53;;;24.67;46.56
78313;BME280;67568;47.438;21.408;2023-09-30T08:35:21;101123.97;;;24.76;46.16
78313;BME280;67568;47.438;21.408;2023-09-30T08:37:48;101125.22;;;25.32;43.88
78313;BME280;67568;47.438;21.408;2023-09-30T08:40:20;101120.28;;;25.25;44.02
78313;BME280;67568;47.438;21.408;2023-09-30T08:42:51;101114.22;;;25.00;44.06
78313;BME280;67568;47.438;21.408;2023-09-30T08:45:19;101109.94;;;24.87;45.15
78313;BME280;67568;47.438;21.408;2023-09-30T08:47:46;101109.03;;;24.79;45.56
78313;BME280;67568;47.438;21.408;2023-09-30T08:50:14;101109.91;;;24.83;45.86
78313;BME280;67568;47.438;21.408;2023-09-30T08:52:42;101104.41;;;24.94;45.13
78313;BME280;67568;47.438;21.408;2023-09-30T08:55:10;101102.78;;;25.20;45.58
78313;BME280;67568;47.438;21.408;2023-09-30T08:57:42;101119.75;;;26.14;43.52
78313;BME280;67568;47.438;21.408;2023-09-30T09:00:11;101106.50;;;26.73;41.66
78313;BME280;67568;47.438;21.408;2023-09-30T09:02:41;101108.63;;;27.60;39.63
78313;BME280;67568;47.438;21.408;2023-09-30T09:05:09;101104.00;;;26.64;39.91
78313;BME280;67568;47.438;21.408;2023-09-30T09:07:36;101111.28;;;26.21;39.88
78313;BME280;67568;47.438;21.408;2023-09-30T09:10:12;101103.31;;;25.93;40.67
78313;BME280;67568;47.438;21.408;2023-09-30T09:12:40;101101.44;;;25.74;41.69
78313;BME280;67568;47.438;21.408;2023-09-30T09:15:19;101100.16;;;25.38;41.62
78313;BME280;67568;47.438;21.408;2023-09-30T09:17:46;101102.38;;;25.51;41.82
78313;BME280;67568;47.438;21.408;2023-09-30T09:20:21;101101.88;;;25.42;41.82
78313;BME280;67568;47.438;21.408;2023-09-30T09:22:51;101094.03;;;25.66;41.92
78313;BME280;67568;47.438;21.408;2023-09-30T09:25:18;101096.78;;;25.92;41.65
78313;BME280;67568;47.438;21.408;2023-09-30T09:27:48;101091.94;;;25.93;41.20
78313;BME280;67568;47.438;21.408;2023-09-30T09:30:26;101090.06;;;26.08;41.07
78313;BME280;67568;47.438;21.408;2023-09-30T09:35:26;101080.91;;;26.25;41.38
78313;BME280;67568;47.438;21.408;2023-09-30T09:38:03;101080.41;;;26.64;41.32
78313;BME280;67568;47.438;21.408;2023-09-30T09:40:35;101082.72;;;26.47;40.76
78313;BME280;67568;47.438;21.408;2023-09-30T09:43:03;101081.72;;;26.25;40.14
78313;BME280;67568;47.438;21.408;2023-09-30T09:45:35;101071.56;;;26.24;40.41
78313;BME280;67568;47.438;21.408;2023-09-30T09:48:04;101067.97;;;26.35;41.05
78313;BME280;67568;47.438;21.408;2023-09-30T09:50:36;101070.31;;;27.32;39.13
78313;BME280;67568;47.438;21.408;2023-09-30T09:53:07;101077.41;;;29.32;35.93
78313;BME280;67568;47.438;21.408;2023-09-30T09:55:35;101069.13;;;30.29;33.69
78313;BME280;67568;47.438;21.408;2023-09-30T09:58:03;101069.63;;;29.32;33.72
78313;BME280;67568;47.438;21.408;2023-09-30T10:00:32;101060.00;;;28.73;36.87
78313;BME280;67568;47.438;21.408;2023-09-30T10:02:59;101063.28;;;28.42;36.12
78313;BME280;67568;47.438;21.408;2023-09-30T10:05:28;101059.78;;;27.44;36.71
78313;BME280;67568;47.438;21.408;2023-09-30T10:08:21;101058.88;;;27.25;37.74
78313;BME280;67568;47.438;21.408;2023-09-30T10:10:54;101058.19;;;26.80;37.21
78313;BME280;67568;47.438;21.408;2023-09-30T10:13:55;101054.19;;;26.88;38.57
78313;BME280;67568;47.438;21.408;2023-09-30T10:19:13;101047.59;;;26.74;37.77
78313;BME280;67568;47.438;21.408;2023-09-30T10:25:32;101052.94;;;26.86;37.86
78313;BME280;67568;47.438;21.408;2023-09-30T10:27:38;101045.56;;;26.71;38.30
78313;BME280;67568;47.438;21.408;2023-09-30T10:30:06;101045.03;;;26.54;37.57
78313;BME280;67568;47.438;21.408;2023-09-30T10:40:49;101028.06;;;26.68;36.89
78313;BME280;67568;47.438;21.408;2023-09-30T10:46:00;101025.84;;;27.06;36.17
78313;BME280;67568;47.438;21.408;2023-09-30T10:50:58;101032.22;;;26.85;36.57
78313;BME280;67568;47.438;21.408;2023-09-30T10:53:27;101025.31;;;26.86;36.88
78313;BME280;67568;47.438;21.408;2023-09-30T10:55:56;101022.91;;;26.85;36.58
78313;BME280;67568;47.438;21.408;2023-09-30T10:58:47;101018.81;;;26.79;36.22
78313;BME280;67568;47.438;21.408;2023-09-30T11:01:16;101018.38;;;26.80;36.01
78313;BME280;67568;47.438;21.408;2023-09-30T11:03:44;101012.25;;;26.75;36.95
78313;BME280;67568;47.438;21.408;2023-09-30T11:06:16;101006.09;;;26.62;35.92
78313;BME280;67568;47.438;21.408;2023-09-30T11:08:52;101011.44;;;26.74;36.15
78313;BME280;67568;47.438;21.408;2023-09-30T11:11:42;101007.44;;;26.86;36.26
78313;BME280;67568;47.438;21.408;2023-09-30T11:14:29;101000.16;;;26.88;34.99
78313;BME280;67568;47.438;21.408;2023-09-30T11:17:02;101006.72;;;27.00;33.58
78313;BME280;67568;47.438;21.408;2023-09-30T11:19:49;101008.19;;;26.72;34.67
78313;BME280;67568;47.438;21.408;2023-09-30T11:22:16;101000.50;;;26.73;34.94
78313;BME280;67568;47.438;21.408;2023-09-30T11:24:43;100993.59;;;26.77;34.50
78313;BME280;67568;47.438;21.408;2023-09-30T11:27:10;100993.59;;;26.77;35.42
78313;BME280;67568;47.438;21.408;2023-09-30T11:29:48;100990.28;;;26.68;35.27
78313;BME280;67568;47.438;21.408;2023-09-30T11:32:27;100991.47;;;26.63;35.54
78313;BME280;67568;47.438;21.408;2023-09-30T11:34:54;100991.00;;;26.51;36.12
78313;BME280;67568;47.438;21.408;2023-09-30T11:37:21;100987.63;;;26.38;34.84
78313;BME280;67568;47.438;21.408;2023-09-30T11:39:54;100990.78;;;26.25;36.31
78313;BME280;67568;47.438;21.408;2023-09-30T11:42:22;100983.63;;;25.94;36.29
78313;BME280;67568;47.438;21.408;2023-09-30T11:44:49;100980.97;;;26.16;36.38
78313;BME280;67568;47.438;21.408;2023-09-30T11:47:16;100978.53;;;26.18;36.25
78313;BME280;67568;47.438;21.408;2023-09-30T11:49:57;100980.06;;;26.05;35.82
78313;BME280;67568;47.438;21.408;2023-09-30T11:52:29;100969.97;;;26.11;35.63
78313;BME280;67568;47.438;21.408;2023-09-30T11:54:56;100971.13;;;26.02;35.57
78313;BME280;67568;47.438;21.408;2023-09-30T11:57:26;100972.00;;;26.10;35.77
78313;BME280;67568;47.438;21.408;2023-09-30T11:59:53;100966.94;;;25.89;35.47
78313;BME280;67568;47.438;21.408;2023-09-30T12:02:19;100970.72;;;26.04;35.37
78313;BME280;67568;47.438;21.408;2023-09-30T12:04:51;100964.34;;;26.18;34.62
78313;BME280;67568;47.438;21.408;2023-09-30T12:07:18;100962.25;;;26.11;34.95
78313;BME280;67568;47.438;21.408;2023-09-30T12:09:50;100959.44;;;26.11;35.20
78313;BME280;67568;47.438;21.408;2023-09-30T12:12:17;100963.81;;;26.01;34.30
78313;BME280;67568;47.438;21.408;2023-09-30T12:14:45;100954.97;;;26.14;34.75
78313;BME280;67568;47.438;21.408;2023-09-30T12:17:14;100953.41;;;26.20;34.71
78313;BME280;67568;47.438;21.408;2023-09-30T12:19:41;100957.47;;;26.22;33.79
78313;BME280;67568;47.438;21.408;2023-09-30T12:22:10;100959.09;;;26.23;33.67
78313;BME280;67568;47.438;21.408;2023-09-30T12:24:37;100948.63;;;26.31;34.95
78313;BME280;67568;47.438;21.408;2023-09-30T12:27:04;100957.13;;;26.31;35.10
78313;BME280;67568;47.438;21.408;2023-09-30T12:29:34;100948.50;;;26.17;35.55
78313;BME280;67568;47.438;21.408;2023-09-30T12:32:01;100947.34;;;26.21;35.80
78313;BME280;67568;47.438;21.408;2023-09-30T12:34:28;100954.22;;;26.20;35.15
78313;BME280;67568;47.438;21.408;2023-09-30T12:37:00;100948.50;;;26.13;34.80
78313;BME280;67568;47.438;21.408;2023-09-30T12:39:27;100954.66;;;26.22;36.10
78313;BME280;67568;47.438;21.408;2023-09-30T12:41:54;100945.59;;;26.10;34.44
78313;BME280;67568;47.438;21.408;2023-09-30T12:44:21;100936.69;;;26.08;34.56
78313;BME280;67568;47.438;21.408;2023-09-30T12:46:48;100934.19;;;26.02;35.40
78313;BME280;67568;47.438;21.408;2023-09-30T12:49:18;100931.72;;;25.97;35.73
78313;BME280;67568;47.438;21.408;2023-09-30T12:51:45;100929.66;;;25.94;34.98
78313;BME280;67568;47.438;21.408;2023-09-30T12:54:12;100932.63;;;26.09;35.36
78313;BME280;67568;47.438;21.408;2023-09-30T12:56:40;100928.88;;;25.94;35.78
78313;BME280;67568;47.438;21.408;2023-09-30T12:59:06;100928.91;;;26.01;34.94
78313;BME280;67568;47.438;21.408;2023-09-30T13:01:33;100928.16;;;26.08;36.05
78313;BME280;67568;47.438;21.408;2023-09-30T13:04:00;100920.81;;;26.03;35.56
78313;BME280;67568;47.438;21.408;2023-09-30T13:06:27;100917.03;;;25.85;36.46
78313;BME280;67568;47.438;21.408;2023-09-30T13:08:54;100927.91;;;25.79;36.33